CheckWX is a tool to help pilots better visualize weather data.  It is not intended as a substitute for an official pre-flight weather briefing.

14:51:09 UTC

UTFN TAF
Namangan Airport
Namangan, Uzbekistan
TAF UTFN 231100Z 2312/2412 23018KT 6000 SCT050CB BKN100 TEMPO 2312/2324 24018G28KT 2500 -TSRA BR OVC020CB TEMPO 2400/2404 2000 BR SCT010

Mar-23@
12:00 UTC

Mar-23 @ 12:00 UTC

Mar-24@
12:00 UTC

Mar-24 @ 12:00 UTC

TAF UTFN 231100Z 2312/2412 23018KT 6000 SCT050CB BKN100
Wind
  • 230° at 18 KTS
Cloud Levels
  • Scattered at 5,000' AGL
  • Broken at 10,000' AGL

Mar-23@
12:00 UTC

Mar-23 @ 12:00 UTC

Mar-24@
00:00 UTC

Mar-24 @ 00:00 UTC

TEMPO 2312/2324 24018G28KT 2500 -TSRA BR OVC020CB

Temporary

Temporary Changes expected for less than half the time period

Wind
  • 240° at 18 KTS
  • {Gusting to 28 KTS
Conditions
Light Thunderstorm, Light Rain, Mist
Cloud Levels
  • Overcast at 2,000' AGL

Mar-24@
00:00 UTC

Mar-24 @ 00:00 UTC

Mar-24@
04:00 UTC

Mar-24 @ 04:00 UTC

TEMPO 2400/2404 2000 BR SCT010

Temporary

Temporary Changes expected for less than half the time period

Conditions
Mist
Cloud Levels
  • Scattered at 1,000' AGL